sensor_id;sensor_type;location;lat;lon;timestamp;temperature;humidity
29729;DHT22;20055;51.498;11.960;2024-02-26T00:00:45;5.20;99.90
29729;DHT22;20055;51.498;11.960;2024-02-26T00:03:12;5.20;99.90
29729;DHT22;20055;51.498;11.960;2024-02-26T00:05:38;5.20;99.90
29729;DHT22;20055;51.498;11.960;2024-02-26T00:08:05;5.20;99.90
29729;DHT22;20055;51.498;11.960;2024-02-26T00:10:31;5.30;99.90
29729;DHT22;20055;51.498;11.960;2024-02-26T00:12:57;5.30;99.90
29729;DHT22;20055;51.498;11.960;2024-02-26T00:15:24;5.30;99.90
29729;DHT22;20055;51.498;11.960;2024-02-26T00:17:51;5.20;99.90
29729;DHT22;20055;51.498;11.960;2024-02-26T00:20:17;5.10;99.90
29729;DHT22;20055;51.498;11.960;2024-02-26T00:22:43;5.00;99.90
29729;DHT22;20055;51.498;11.960;2024-02-26T00:25:09;5.00;99.90
29729;DHT22;20055;51.498;11.960;2024-02-26T00:27:38;4.90;99.90
29729;DHT22;20055;51.498;11.960;2024-02-26T00:30:06;4.90;99.90
29729;DHT22;20055;51.498;11.960;2024-02-26T00:32:33;4.80;99.90
29729;DHT22;20055;51.498;11.960;2024-02-26T00:34:59;4.80;99.90
29729;DHT22;20055;51.498;11.960;2024-02-26T00:37:25;4.90;99.90
29729;DHT22;20055;51.498;11.960;2024-02-26T00:39:51;4.90;99.90
29729;DHT22;20055;51.498;11.960;2024-02-26T00:42:19;4.80;99.90
29729;DHT22;20055;51.498;11.960;2024-02-26T00:44:45;4.80;99.90
29729;DHT22;20055;51.498;11.960;2024-02-26T00:47:11;4.70;99.90
29729;DHT22;20055;51.498;11.960;2024-02-26T00:49:37;4.70;99.90
29729;DHT22;20055;51.498;11.960;2024-02-26T00:52:04;4.60;99.90
29729;DHT22;20055;51.498;11.960;2024-02-26T00:54:30;4.50;99.90
29729;DHT22;20055;51.498;11.960;2024-02-26T00:56:56;4.50;99.90
29729;DHT22;20055;51.498;11.960;2024-02-26T00:59:22;4.50;99.90
29729;DHT22;20055;51.498;11.960;2024-02-26T01:01:49;4.50;99.90
29729;DHT22;20055;51.498;11.960;2024-02-26T01:04:15;4.60;99.90
29729;DHT22;20055;51.498;11.960;2024-02-26T01:06:41;4.50;99.90
29729;DHT22;20055;51.498;11.960;2024-02-26T01:09:07;4.50;99.90
29729;DHT22;20055;51.498;11.960;2024-02-26T01:11:34;4.50;99.90
29729;DHT22;20055;51.498;11.960;2024-02-26T01:14:00;4.50;99.90
29729;DHT22;20055;51.498;11.960;2024-02-26T01:16:26;4.50;99.90
29729;DHT22;20055;51.498;11.960;2024-02-26T01:18:55;4.40;99.90
29729;DHT22;20055;51.498;11.960;2024-02-26T01:21:21;4.30;99.90
29729;DHT22;20055;51.498;11.960;2024-02-26T01:23:47;4.40;99.90
29729;DHT22;20055;51.498;11.960;2024-02-26T01:26:13;4.30;99.90
29729;DHT22;20055;51.498;11.960;2024-02-26T01:28:40;4.30;99.90
29729;DHT22;20055;51.498;11.960;2024-02-26T01:31:06;4.20;99.90
29729;DHT22;20055;51.498;11.960;2024-02-26T01:33:34;4.20;99.90
29729;DHT22;20055;51.498;11.960;2024-02-26T01:36:00;4.20;99.90
29729;DHT22;20055;51.498;11.960;2024-02-26T01:38:26;4.10;99.90
29729;DHT22;20055;51.498;11.960;2024-02-26T01:40:53;4.10;99.90
29729;DHT22;20055;51.498;11.960;2024-02-26T01:43:19;4.10;99.90
29729;DHT22;20055;51.498;11.960;2024-02-26T01:45:46;4.00;99.90
29729;DHT22;20055;51.498;11.960;2024-02-26T01:48:12;4.00;99.90
29729;DHT22;20055;51.498;11.960;2024-02-26T01:50:39;3.90;99.90
29729;DHT22;20055;51.498;11.960;2024-02-26T01:53:06;4.00;99.90
29729;DHT22;20055;51.498;11.960;2024-02-26T01:55:33;3.90;99.90
29729;DHT22;20055;51.498;11.960;2024-02-26T01:58:00;3.90;99.90
29729;DHT22;20055;51.498;11.960;2024-02-26T02:00:26;3.90;99.90
29729;DHT22;20055;51.498;11.960;2024-02-26T02:02:52;4.00;99.90
29729;DHT22;20055;51.498;11.960;2024-02-26T02:05:21;4.00;99.90
29729;DHT22;20055;51.498;11.960;2024-02-26T02:07:47;4.00;99.90
29729;DHT22;20055;51.498;11.960;2024-02-26T02:10:15;4.00;99.90
29729;DHT22;20055;51.498;11.960;2024-02-26T02:12:43;4.00;99.90
29729;DHT22;20055;51.498;11.960;2024-02-26T02:15:09;4.10;99.90
29729;DHT22;20055;51.498;11.960;2024-02-26T02:17:36;4.10;99.90
29729;DHT22;20055;51.498;11.960;2024-02-26T02:20:02;4.00;99.90
29729;DHT22;20055;51.498;11.960;2024-02-26T02:22:29;4.00;99.90
29729;DHT22;20055;51.498;11.960;2024-02-26T02:24:57;3.90;99.90
29729;DHT22;20055;51.498;11.960;2024-02-26T02:27:25;4.00;99.90
29729;DHT22;20055;51.498;11.960;2024-02-26T02:29:52;4.00;99.90
29729;DHT22;20055;51.498;11.960;2024-02-26T02:32:19;3.90;99.90
29729;DHT22;20055;51.498;11.960;2024-02-26T02:34:46;3.90;99.90
29729;DHT22;20055;51.498;11.960;2024-02-26T02:37:12;3.90;99.90
29729;DHT22;20055;51.498;11.960;2024-02-26T02:39:38;3.90;99.90
29729;DHT22;20055;51.498;11.960;2024-02-26T02:42:05;3.90;99.90
29729;DHT22;20055;51.498;11.960;2024-02-26T02:44:31;4.00;99.90
29729;DHT22;20055;51.498;11.960;2024-02-26T02:46:57;4.00;99.90
29729;DHT22;20055;51.498;11.960;2024-02-26T02:49:23;4.10;99.90
29729;DHT22;20055;51.498;11.960;2024-02-26T02:51:49;4.00;99.90
29729;DHT22;20055;51.498;11.960;2024-02-26T02:54:16;4.00;99.90
29729;DHT22;20055;51.498;11.960;2024-02-26T02:56:42;4.10;99.90
29729;DHT22;20055;51.498;11.960;2024-02-26T02:59:08;4.00;99.90
29729;DHT22;20055;51.498;11.960;2024-02-26T03:01:34;4.00;99.90
29729;DHT22;20055;51.498;11.960;2024-02-26T03:04:00;4.10;99.90
29729;DHT22;20055;51.498;11.960;2024-02-26T03:06:26;4.10;99.90
29729;DHT22;20055;51.498;11.960;2024-02-26T03:08:54;4.00;99.90
29729;DHT22;20055;51.498;11.960;2024-02-26T03:11:21;4.00;99.90
29729;DHT22;20055;51.498;11.960;2024-02-26T03:13:47;4.10;99.90
29729;DHT22;20055;51.498;11.960;2024-02-26T03:16:13;4.10;99.90
29729;DHT22;20055;51.498;11.960;2024-02-26T03:18:39;4.00;99.90
29729;DHT22;20055;51.498;11.960;2024-02-26T03:21:07;4.00;99.90
29729;DHT22;20055;51.498;11.960;2024-02-26T03:23:33;4.00;99.90
29729;DHT22;20055;51.498;11.960;2024-02-26T03:26:05;3.90;99.90
29729;DHT22;20055;51.498;11.960;2024-02-26T03:28:31;3.90;99.90
29729;DHT22;20055;51.498;11.960;2024-02-26T03:31:01;3.90;99.90
29729;DHT22;20055;51.498;11.960;2024-02-26T03:33:28;3.90;99.90
29729;DHT22;20055;51.498;11.960;2024-02-26T03:35:54;3.90;99.90
29729;DHT22;20055;51.498;11.960;2024-02-26T03:38:20;3.90;99.90
29729;DHT22;20055;51.498;11.960;2024-02-26T03:40:46;3.70;99.90
29729;DHT22;20055;51.498;11.960;2024-02-26T03:43:13;3.70;99.90
29729;DHT22;20055;51.498;11.960;2024-02-26T03:45:39;3.70;99.90
29729;DHT22;20055;51.498;11.960;2024-02-26T03:48:06;3.60;99.90
29729;DHT22;20055;51.498;11.960;2024-02-26T03:50:32;3.60;99.90
29729;DHT22;20055;51.498;11.960;2024-02-26T03:52:59;3.50;99.90
29729;DHT22;20055;51.498;11.960;2024-02-26T03:55:25;3.40;99.90
29729;DHT22;20055;51.498;11.960;2024-02-26T03:57:52;3.30;99.90
29729;DHT22;20055;51.498;11.960;2024-02-26T04:00:18;3.20;99.90
29729;DHT22;20055;51.498;11.960;2024-02-26T04:02:46;3.00;99.90
29729;DHT22;20055;51.498;11.960;2024-02-26T04:05:13;3.00;99.90
29729;DHT22;20055;51.498;11.960;2024-02-26T04:07:40;2.90;99.90
29729;DHT22;20055;51.498;11.960;2024-02-26T04:10:10;3.00;99.90
29729;DHT22;20055;51.498;11.960;2024-02-26T04:12:39;3.10;99.90
29729;DHT22;20055;51.498;11.960;2024-02-26T04:15:07;3.10;99.90
29729;DHT22;20055;51.498;11.960;2024-02-26T04:17:33;3.10;99.90
29729;DHT22;20055;51.498;11.960;2024-02-26T04:20:00;3.20;99.90
29729;DHT22;20055;51.498;11.960;2024-02-26T04:22:27;3.10;99.90
29729;DHT22;20055;51.498;11.960;2024-02-26T04:24:54;3.00;99.90
29729;DHT22;20055;51.498;11.960;2024-02-26T04:27:20;3.00;99.90
29729;DHT22;20055;51.498;11.960;2024-02-26T04:29:46;3.00;99.90
29729;DHT22;20055;51.498;11.960;2024-02-26T04:32:12;3.00;99.90
29729;DHT22;20055;51.498;11.960;2024-02-26T04:34:38;3.00;99.90
29729;DHT22;20055;51.498;11.960;2024-02-26T04:37:05;3.00;99.90
29729;DHT22;20055;51.498;11.960;2024-02-26T04:39:31;3.10;99.90
29729;DHT22;20055;51.498;11.960;2024-02-26T04:41:57;3.10;99.90
29729;DHT22;20055;51.498;11.960;2024-02-26T04:44:23;3.30;99.90
29729;DHT22;20055;51.498;11.960;2024-02-26T04:46:49;3.30;99.90
29729;DHT22;20055;51.498;11.960;2024-02-26T04:49:15;3.20;99.90
29729;DHT22;20055;51.498;11.960;2024-02-26T04:51:41;3.20;99.90
29729;DHT22;20055;51.498;11.960;2024-02-26T04:54:08;3.20;99.90
29729;DHT22;20055;51.498;11.960;2024-02-26T04:56:34;3.20;99.90
29729;DHT22;20055;51.498;11.960;2024-02-26T04:59:00;3.10;99.90
29729;DHT22;20055;51.498;11.960;2024-02-26T05:01:26;3.20;99.90
29729;DHT22;20055;51.498;11.960;2024-02-26T05:03:53;3.20;99.90
29729;DHT22;20055;51.498;11.960;2024-02-26T05:06:19;3.20;99.90
29729;DHT22;20055;51.498;11.960;2024-02-26T05:08:45;3.30;99.90
29729;DHT22;20055;51.498;11.960;2024-02-26T05:11:12;3.60;99.90
29729;DHT22;20055;51.498;11.960;2024-02-26T05:13:38;3.60;99.90
29729;DHT22;20055;51.498;11.960;2024-02-26T05:16:04;3.60;99.90
29729;DHT22;20055;51.498;11.960;2024-02-26T05:18:31;3.50;99.90
29729;DHT22;20055;51.498;11.960;2024-02-26T05:20:57;3.40;99.90
29729;DHT22;20055;51.498;11.960;2024-02-26T05:23:23;3.40;99.90
29729;DHT22;20055;51.498;11.960;2024-02-26T05:25:50;3.40;99.90
29729;DHT22;20055;51.498;11.960;2024-02-26T05:28:16;3.40;99.90
29729;DHT22;20055;51.498;11.960;2024-02-26T05:30:42;3.40;99.90
29729;DHT22;20055;51.498;11.960;2024-02-26T05:33:09;3.40;99.90
29729;DHT22;20055;51.498;11.960;2024-02-26T05:35:35;3.40;99.90
29729;DHT22;20055;51.498;11.960;2024-02-26T05:38:01;3.40;99.90
29729;DHT22;20055;51.498;11.960;2024-02-26T05:40:27;3.40;99.90
29729;DHT22;20055;51.498;11.960;2024-02-26T05:42:53;3.50;99.90
29729;DHT22;20055;51.498;11.960;2024-02-26T05:45:19;3.30;99.90
29729;DHT22;20055;51.498;11.960;2024-02-26T05:47:46;3.30;99.90
29729;DHT22;20055;51.498;11.960;2024-02-26T05:50:12;3.20;99.90
29729;DHT22;20055;51.498;11.960;2024-02-26T05:52:39;3.10;99.90
29729;DHT22;20055;51.498;11.960;2024-02-26T05:55:06;3.10;99.90
29729;DHT22;20055;51.498;11.960;2024-02-26T05:57:34;3.10;99.90
29729;DHT22;20055;51.498;11.960;2024-02-26T06:00:00;3.10;99.90
29729;DHT22;20055;51.498;11.960;2024-02-26T06:02:38;3.10;99.90
29729;DHT22;20055;51.498;11.960;2024-02-26T06:05:04;3.10;99.90
29729;DHT22;20055;51.498;11.960;2024-02-26T06:07:30;3.10;99.90
29729;DHT22;20055;51.498;11.960;2024-02-26T06:09:56;3.10;99.90
29729;DHT22;20055;51.498;11.960;2024-02-26T06:12:23;3.10;99.90
29729;DHT22;20055;51.498;11.960;2024-02-26T06:14:49;3.10;99.90
29729;DHT22;20055;51.498;11.960;2024-02-26T06:17:15;3.10;99.90
29729;DHT22;20055;51.498;11.960;2024-02-26T06:19:42;3.20;99.90
29729;DHT22;20055;51.498;11.960;2024-02-26T06:22:08;3.30;99.90
29729;DHT22;20055;51.498;11.960;2024-02-26T06:24:34;3.40;99.90
29729;DHT22;20055;51.498;11.960;2024-02-26T06:27:01;3.40;99.90
29729;DHT22;20055;51.498;11.960;2024-02-26T06:29:27;3.50;99.90
29729;DHT22;20055;51.498;11.960;2024-02-26T06:31:53;3.60;99.90
29729;DHT22;20055;51.498;11.960;2024-02-26T06:34:19;3.60;99.90
29729;DHT22;20055;51.498;11.960;2024-02-26T06:36:46;3.50;99.90
29729;DHT22;20055;51.498;11.960;2024-02-26T06:39:13;3.60;99.90
29729;DHT22;20055;51.498;11.960;2024-02-26T06:41:41;3.70;99.90
29729;DHT22;20055;51.498;11.960;2024-02-26T06:44:07;3.90;99.90
29729;DHT22;20055;51.498;11.960;2024-02-26T06:46:33;3.90;99.90
29729;DHT22;20055;51.498;11.960;2024-02-26T06:49:00;3.90;99.90
29729;DHT22;20055;51.498;11.960;2024-02-26T06:51:26;4.00;99.90
29729;DHT22;20055;51.498;11.960;2024-02-26T06:53:52;3.90;99.90
29729;DHT22;20055;51.498;11.960;2024-02-26T06:56:18;3.90;99.90
29729;DHT22;20055;51.498;11.960;2024-02-26T06:58:45;3.90;99.90
29729;DHT22;20055;51.498;11.960;2024-02-26T07:01:12;4.10;99.90
29729;DHT22;20055;51.498;11.960;2024-02-26T07:03:40;4.10;99.90
29729;DHT22;20055;51.498;11.960;2024-02-26T07:06:06;4.20;99.90
29729;DHT22;20055;51.498;11.960;2024-02-26T07:08:34;4.20;99.90
29729;DHT22;20055;51.498;11.960;2024-02-26T07:11:00;4.30;99.90
29729;DHT22;20055;51.498;11.960;2024-02-26T07:13:27;4.50;99.90
29729;DHT22;20055;51.498;11.960;2024-02-26T07:15:53;4.70;99.90
29729;DHT22;20055;51.498;11.960;2024-02-26T07:18:19;4.80;99.90
29729;DHT22;20055;51.498;11.960;2024-02-26T07:20:45;5.00;99.90
29729;DHT22;20055;51.498;11.960;2024-02-26T07:23:12;4.80;99.90
29729;DHT22;20055;51.498;11.960;2024-02-26T07:25:38;4.70;99.90
29729;DHT22;20055;51.498;11.960;2024-02-26T07:28:05;4.70;99.90
29729;DHT22;20055;51.498;11.960;2024-02-26T07:30:31;4.80;99.90
29729;DHT22;20055;51.498;11.960;2024-02-26T07:32:57;4.80;99.90
29729;DHT22;20055;51.498;11.960;2024-02-26T07:35:24;4.80;99.90
29729;DHT22;20055;51.498;11.960;2024-02-26T07:37:50;4.90;99.90
29729;DHT22;20055;51.498;11.960;2024-02-26T07:40:16;5.10;99.90
29729;DHT22;20055;51.498;11.960;2024-02-26T07:42:42;5.20;99.90
29729;DHT22;20055;51.498;11.960;2024-02-26T07:45:09;5.40;99.90
29729;DHT22;20055;51.498;11.960;2024-02-26T07:47:35;5.30;99.90
29729;DHT22;20055;51.498;11.960;2024-02-26T07:50:02;5.30;99.90
29729;DHT22;20055;51.498;11.960;2024-02-26T07:52:28;5.40;99.90
29729;DHT22;20055;51.498;11.960;2024-02-26T07:54:54;5.40;99.90
29729;DHT22;20055;51.498;11.960;2024-02-26T07:57:20;5.40;99.90
29729;DHT22;20055;51.498;11.960;2024-02-26T07:59:47;5.50;99.90
29729;DHT22;20055;51.498;11.960;2024-02-26T08:02:16;5.40;99.90
29729;DHT22;20055;51.498;11.960;2024-02-26T08:04:42;5.50;99.90
29729;DHT22;20055;51.498;11.960;2024-02-26T08:07:08;5.70;99.90
29729;DHT22;20055;51.498;11.960;2024-02-26T08:09:34;6.00;99.90
29729;DHT22;20055;51.498;11.960;2024-02-26T08:12:01;6.20;99.90
29729;DHT22;20055;51.498;11.960;2024-02-26T08:14:27;6.50;99.90
29729;DHT22;20055;51.498;11.960;2024-02-26T08:16:53;6.40;99.90
29729;DHT22;20055;51.498;11.960;2024-02-26T08:19:19;6.20;99.90
29729;DHT22;20055;51.498;11.960;2024-02-26T08:21:45;6.20;99.90
29729;DHT22;20055;51.498;11.960;2024-02-26T08:24:11;6.20;99.90
29729;DHT22;20055;51.498;11.960;2024-02-26T08:26:38;6.20;99.90
29729;DHT22;20055;51.498;11.960;2024-02-26T08:29:04;6.40;99.90
29729;DHT22;20055;51.498;11.960;2024-02-26T08:31:30;6.60;99.90
29729;DHT22;20055;51.498;11.960;2024-02-26T08:33:56;6.60;99.90
29729;DHT22;20055;51.498;11.960;2024-02-26T08:36:24;6.50;99.90
29729;DHT22;20055;51.498;11.960;2024-02-26T08:38:50;6.30;99.90
29729;DHT22;20055;51.498;11.960;2024-02-26T08:41:16;6.30;99.90
29729;DHT22;20055;51.498;11.960;2024-02-26T08:43:42;6.60;99.90
29729;DHT22;20055;51.498;11.960;2024-02-26T08:46:09;6.70;99.90
29729;DHT22;20055;51.498;11.960;2024-02-26T08:48:36;6.70;99.90
29729;DHT22;20055;51.498;11.960;2024-02-26T08:51:06;6.80;99.90
29729;DHT22;20055;51.498;11.960;2024-02-26T08:53:33;7.30;99.90
29729;DHT22;20055;51.498;11.960;2024-02-26T08:55:59;7.40;99.90
29729;DHT22;20055;51.498;11.960;2024-02-26T08:58:27;7.40;99.90
29729;DHT22;20055;51.498;11.960;2024-02-26T09:00:54;7.40;99.90
29729;DHT22;20055;51.498;11.960;2024-02-26T09:03:21;7.40;99.90
29729;DHT22;20055;51.498;11.960;2024-02-26T09:05:47;7.10;99.90
29729;DHT22;20055;51.498;11.960;2024-02-26T09:08:14;7.30;99.90
29729;DHT22;20055;51.498;11.960;2024-02-26T09:10:40;7.40;99.90
29729;DHT22;20055;51.498;11.960;2024-02-26T09:13:06;7.50;99.90
29729;DHT22;20055;51.498;11.960;2024-02-26T09:15:33;7.60;99.90
29729;DHT22;20055;51.498;11.960;2024-02-26T09:18:00;7.50;99.90
29729;DHT22;20055;51.498;11.960;2024-02-26T09:20:26;7.50;99.90
29729;DHT22;20055;51.498;11.960;2024-02-26T09:22:52;7.60;99.90
29729;DHT22;20055;51.498;11.960;2024-02-26T09:25:19;7.40;99.90
29729;DHT22;20055;51.498;11.960;2024-02-26T09:27:46;7.50;99.90
29729;DHT22;20055;51.498;11.960;2024-02-26T09:30:13;7.40;99.90
29729;DHT22;20055;51.498;11.960;2024-02-26T09:32:40;7.40;99.90
29729;DHT22;20055;51.498;11.960;2024-02-26T09:35:06;7.60;99.90
29729;DHT22;20055;51.498;11.960;2024-02-26T09:37:33;7.70;99.90
29729;DHT22;20055;51.498;11.960;2024-02-26T09:40:00;7.80;99.90
29729;DHT22;20055;51.498;11.960;2024-02-26T09:42:26;7.80;99.90
29729;DHT22;20055;51.498;11.960;2024-02-26T09:44:59;7.90;99.90
29729;DHT22;20055;51.498;11.960;2024-02-26T09:47:31;7.90;99.90
29729;DHT22;20055;51.498;11.960;2024-02-26T09:49:59;8.10;99.90
29729;DHT22;20055;51.498;11.960;2024-02-26T09:52:26;8.50;99.90
29729;DHT22;20055;51.498;11.960;2024-02-26T09:54:53;8.80;99.90
29729;DHT22;20055;51.498;11.960;2024-02-26T09:57:20;8.90;99.90
29729;DHT22;20055;51.498;11.960;2024-02-26T09:59:51;8.90;99.90
29729;DHT22;20055;51.498;11.960;2024-02-26T10:02:20;8.70;99.90
29729;DHT22;20055;51.498;11.960;2024-02-26T10:04:47;8.90;99.90
29729;DHT22;20055;51.498;11.960;2024-02-26T10:07:16;9.30;99.90
29729;DHT22;20055;51.498;11.960;2024-02-26T10:09:42;9.40;99.90
29729;DHT22;20055;51.498;11.960;2024-02-26T10:12:10;9.10;99.90
29729;DHT22;20055;51.498;11.960;2024-02-26T10:14:37;9.20;99.90
29729;DHT22;20055;51.498;11.960;2024-02-26T10:17:07;9.10;99.90
29729;DHT22;20055;51.498;11.960;2024-02-26T10:19:34;9.10;99.90
29729;DHT22;20055;51.498;11.960;2024-02-26T10:22:01;9.00;99.90
29729;DHT22;20055;51.498;11.960;2024-02-26T10:24:28;9.10;99.90
29729;DHT22;20055;51.498;11.960;2024-02-26T10:26:55;9.20;99.90
29729;DHT22;20055;51.498;11.960;2024-02-26T10:29:24;9.10;99.90
29729;DHT22;20055;51.498;11.960;2024-02-26T10:31:51;9.10;99.90
29729;DHT22;20055;51.498;11.960;2024-02-26T10:34:18;9.30;99.90
29729;DHT22;20055;51.498;11.960;2024-02-26T10:36:45;9.20;99.90
29729;DHT22;20055;51.498;11.960;2024-02-26T10:39:12;9.20;99.90
29729;DHT22;20055;51.498;11.960;2024-02-26T10:41:43;9.10;99.90
29729;DHT22;20055;51.498;11.960;2024-02-26T10:44:10;9.10;99.90
29729;DHT22;20055;51.498;11.960;2024-02-26T10:46:37;9.20;99.90
29729;DHT22;20055;51.498;11.960;2024-02-26T10:49:04;9.40;99.90
29729;DHT22;20055;51.498;11.960;2024-02-26T10:51:31;9.60;99.90
29729;DHT22;20055;51.498;11.960;2024-02-26T10:54:00;9.90;99.90
29729;DHT22;20055;51.498;11.960;2024-02-26T10:56:29;9.90;99.90
29729;DHT22;20055;51.498;11.960;2024-02-26T10:58:55;9.90;99.90
29729;DHT22;20055;51.498;11.960;2024-02-26T11:01:22;10.00;99.90
29729;DHT22;20055;51.498;11.960;2024-02-26T11:03:51;10.20;99.90
29729;DHT22;20055;51.498;11.960;2024-02-26T11:06:21;10.30;99.90
29729;DHT22;20055;51.498;11.960;2024-02-26T11:08:49;10.10;99.90
29729;DHT22;20055;51.498;11.960;2024-02-26T11:11:17;10.00;99.90
29729;DHT22;20055;51.498;11.960;2024-02-26T11:13:47;9.90;99.90
29729;DHT22;20055;51.498;11.960;2024-02-26T11:16:23;9.80;99.90
29729;DHT22;20055;51.498;11.960;2024-02-26T11:18:49;9.90;99.90
29729;DHT22;20055;51.498;11.960;2024-02-26T11:21:19;9.70;99.90
29729;DHT22;20055;51.498;11.960;2024-02-26T11:23:46;9.70;99.90
29729;DHT22;20055;51.498;11.960;2024-02-26T11:26:15;9.90;99.90
29729;DHT22;20055;51.498;11.960;2024-02-26T11:28:43;10.00;99.90
29729;DHT22;20055;51.498;11.960;2024-02-26T11:31:10;10.00;99.90
29729;DHT22;20055;51.498;11.960;2024-02-26T11:33:37;9.90;99.90
29729;DHT22;20055;51.498;11.960;2024-02-26T11:36:09;10.00;99.90
29729;DHT22;20055;51.498;11.960;2024-02-26T11:38:35;10.20;99.90
29729;DHT22;20055;51.498;11.960;2024-02-26T11:41:02;10.20;99.90
29729;DHT22;20055;51.498;11.960;2024-02-26T11:43:51;10.20;99.90
29729;DHT22;20055;51.498;11.960;2024-02-26T11:46:31;10.30;99.90
29729;DHT22;20055;51.498;11.960;2024-02-26T11:49:44;10.30;99.90
29729;DHT22;20055;51.498;11.960;2024-02-26T11:51:52;10.30;99.90
29729;DHT22;20055;51.498;11.960;2024-02-26T11:55:00;10.30;99.90
29729;DHT22;20055;51.498;11.960;2024-02-26T11:57:29;10.30;99.90
29729;DHT22;20055;51.498;11.960;2024-02-26T12:05:19;10.60;99.90
29729;DHT22;20055;51.498;11.960;2024-02-26T12:07:52;10.70;99.90
29729;DHT22;20055;51.498;11.960;2024-02-26T12:10:27;10.70;99.90
29729;DHT22;20055;51.498;11.960;2024-02-26T12:12:58;10.80;99.90
29729;DHT22;20055;51.498;11.960;2024-02-26T12:15:24;10.70;99.90
29729;DHT22;20055;51.498;11.960;2024-02-26T12:17:56;10.70;99.90
29729;DHT22;20055;51.498;11.960;2024-02-26T12:20:22;10.70;99.90
29729;DHT22;20055;51.498;11.960;2024-02-26T12:22:50;10.80;99.90
29729;DHT22;20055;51.498;11.960;2024-02-26T12:25:21;10.90;99.90
29729;DHT22;20055;51.498;11.960;2024-02-26T12:27:48;11.00;99.90
29729;DHT22;20055;51.498;11.960;2024-02-26T12:30:14;11.00;99.90
29729;DHT22;20055;51.498;11.960;2024-02-26T12:32:40;11.00;99.90
29729;DHT22;20055;51.498;11.960;2024-02-26T12:35:07;11.00;99.90
29729;DHT22;20055;51.498;11.960;2024-02-26T12:37:33;10.90;99.90
29729;DHT22;20055;51.498;11.960;2024-02-26T12:40:03;10.80;99.90
29729;DHT22;20055;51.498;11.960;2024-02-26T12:42:32;11.10;99.90
29729;DHT22;20055;51.498;11.960;2024-02-26T12:45:09;11.20;99.90
29729;DHT22;20055;51.498;11.960;2024-02-26T12:50:04;11.90;99.90
29729;DHT22;20055;51.498;11.960;2024-02-26T12:52:42;12.20;99.90
29729;DHT22;20055;51.498;11.960;2024-02-26T12:55:13;12.20;99.90
29729;DHT22;20055;51.498;11.960;2024-02-26T12:57:41;12.10;99.90
29729;DHT22;20055;51.498;11.960;2024-02-26T13:00:15;12.00;99.90
29729;DHT22;20055;51.498;11.960;2024-02-26T13:02:42;11.90;99.90
29729;DHT22;20055;51.498;11.960;2024-02-26T13:05:12;11.90;99.90
29729;DHT22;20055;51.498;11.960;2024-02-26T13:07:46;11.70;99.90
29729;DHT22;20055;51.498;11.960;2024-02-26T13:10:16;11.80;99.90
29729;DHT22;20055;51.498;11.960;2024-02-26T13:12:46;12.00;99.90
29729;DHT22;20055;51.498;11.960;2024-02-26T13:15:19;12.10;99.90
29729;DHT22;20055;51.498;11.960;2024-02-26T13:17:46;12.00;99.90
29729;DHT22;20055;51.498;11.960;2024-02-26T13:20:12;12.00;99.90
29729;DHT22;20055;51.498;11.960;2024-02-26T13:22:39;12.10;99.90
29729;DHT22;20055;51.498;11.960;2024-02-26T13:25:06;12.40;99.90
29729;DHT22;20055;51.498;11.960;2024-02-26T13:27:33;12.40;99.90
29729;DHT22;20055;51.498;11.960;2024-02-26T13:30:10;12.30;99.90
29729;DHT22;20055;51.498;11.960;2024-02-26T13:32:40;12.50;99.90
29729;DHT22;20055;51.498;11.960;2024-02-26T13:35:15;12.50;99.90
29729;DHT22;20055;51.498;11.960;2024-02-26T13:37:41;12.60;99.90
29729;DHT22;20055;51.498;11.960;2024-02-26T13:40:09;12.40;99.90
29729;DHT22;20055;51.498;11.960;2024-02-26T13:42:39;12.40;99.90
29729;DHT22;20055;51.498;11.960;2024-02-26T13:45:06;12.50;99.90
29729;DHT22;20055;51.498;11.960;2024-02-26T13:47:33;12.30;99.90
29729;DHT22;20055;51.498;11.960;2024-02-26T13:50:00;12.40;99.90
29729;DHT22;20055;51.498;11.960;2024-02-26T13:52:27;12.20;99.90
29729;DHT22;20055;51.498;11.960;2024-02-26T13:54:53;12.10;99.90
29729;DHT22;20055;51.498;11.960;2024-02-26T13:57:20;12.00;99.90
29729;DHT22;20055;51.498;11.960;2024-02-26T13:59:46;12.10;99.90
29729;DHT22;20055;51.498;11.960;2024-02-26T14:02:12;12.20;99.90
29729;DHT22;20055;51.498;11.960;2024-02-26T14:04:39;12.40;99.90
29729;DHT22;20055;51.498;11.960;2024-02-26T14:07:05;12.30;99.90
29729;DHT22;20055;51.498;11.960;2024-02-26T14:09:31;12.40;99.90
29729;DHT22;20055;51.498;11.960;2024-02-26T14:12:00;12.50;99.90
29729;DHT22;20055;51.498;11.960;2024-02-26T14:14:30;12.50;99.90
29729;DHT22;20055;51.498;11.960;2024-02-26T14:16:59;12.30;99.90
29729;DHT22;20055;51.498;11.960;2024-02-26T14:19:26;12.50;99.90
29729;DHT22;20055;51.498;11.960;2024-02-26T14:21:52;12.40;99.90
29729;DHT22;20055;51.498;11.960;2024-02-26T14:24:19;12.30;99.90
29729;DHT22;20055;51.498;11.960;2024-02-26T14:26:45;12.30;99.90
29729;DHT22;20055;51.498;11.960;2024-02-26T14:29:12;12.10;99.90
29729;DHT22;20055;51.498;11.960;2024-02-26T14:31:38;12.30;99.90
29729;DHT22;20055;51.498;11.960;2024-02-26T14:34:04;12.00;99.90
29729;DHT22;20055;51.498;11.960;2024-02-26T14:36:30;11.80;99.90
29729;DHT22;20055;51.498;11.960;2024-02-26T14:38:57;11.80;99.90
29729;DHT22;20055;51.498;11.960;2024-02-26T14:41:23;11.60;99.90
29729;DHT22;20055;51.498;11.960;2024-02-26T14:43:49;11.50;99.90
29729;DHT22;20055;51.498;11.960;2024-02-26T14:46:16;11.40;99.90
29729;DHT22;20055;51.498;11.960;2024-02-26T14:48:42;11.40;99.90
29729;DHT22;20055;51.498;11.960;2024-02-26T14:51:08;11.30;99.90
29729;DHT22;20055;51.498;11.960;2024-02-26T14:53:34;11.30;99.90
29729;DHT22;20055;51.498;11.960;2024-02-26T14:56:01;11.20;99.90
29729;DHT22;20055;51.498;11.960;2024-02-26T14:58:27;11.20;99.90
29729;DHT22;20055;51.498;11.960;2024-02-26T15:00:53;11.20;99.90
29729;DHT22;20055;51.498;11.960;2024-02-26T15:03:19;11.20;99.90
29729;DHT22;20055;51.498;11.960;2024-02-26T15:05:46;11.20;99.90
29729;DHT22;20055;51.498;11.960;2024-02-26T15:08:12;11.20;99.90
29729;DHT22;20055;51.498;11.960;2024-02-26T15:10:41;11.20;99.90
29729;DHT22;20055;51.498;11.960;2024-02-26T15:13:14;11.10;99.90
29729;DHT22;20055;51.498;11.960;2024-02-26T15:15:41;11.10;99.90
29729;DHT22;20055;51.498;11.960;2024-02-26T15:18:08;11.10;99.90
29729;DHT22;20055;51.498;11.960;2024-02-26T15:20:37;11.10;99.90
29729;DHT22;20055;51.498;11.960;2024-02-26T15:23:06;11.20;99.90
29729;DHT22;20055;51.498;11.960;2024-02-26T15:25:33;11.10;99.90
29729;DHT22;20055;51.498;11.960;2024-02-26T15:27:59;11.00;99.90
29729;DHT22;20055;51.498;11.960;2024-02-26T15:30:25;11.10;99.90
29729;DHT22;20055;51.498;11.960;2024-02-26T15:32:55;11.10;99.90
29729;DHT22;20055;51.498;11.960;2024-02-26T15:35:22;10.90;99.90